Time;durP1;ratioP1;P1;durP2;ratioP2;P2;SDS_P1;SDS_P2;PMS_P1;PMS_P2;Temp;Humidity;BMP_temperature;BMP_pressure;BME280_temperature;BME280_humidity;BME280_pressure;Samples;Min_cycle;Max_cycle;Signal;HPM_P1;HPM_P2
2022/07/14 00:01:53;;;;;;;12.90;3.83;;;13.30;99.90;;;;;;5053051;28;20040;-72
2022/07/14 00:04:18;;;;;;;12.27;3.90;;;13.40;99.90;;;;;;5050713;28;20091;-71
2022/07/14 00:06:44;;;;;;;15.55;3.75;;;13.30;99.90;;;;;;5035053;28;20059;-72
2022/07/14 00:09:09;;;;;;;12.52;3.90;;;13.20;99.90;;;;;;5031626;28;20041;-71
2022/07/14 00:11:36;;;;;;;12.07;3.67;;;13.10;99.90;;;;;;5041971;28;20155;-71
2022/07/14 00:14:02;;;;;;;14.55;4.20;;;13.10;99.90;;;;;;5050065;28;20195;-72
2022/07/14 00:16:27;;;;;;;12.15;3.63;;;13.00;99.90;;;;;;5029680;28;20761;-71
2022/07/14 00:18:53;;;;;;;19.40;4.30;;;13.00;99.90;;;;;;5028678;28;20073;-71
2022/07/14 00:21:19;;;;;;;12.57;4.07;;;12.90;99.90;;;;;;5032166;28;20045;-71
2022/07/14 00:23:46;;;;;;;12.75;4.22;;;12.90;99.90;;;;;;5036689;28;20049;-71
2022/07/14 00:26:12;;;;;;;11.60;3.60;;;12.90;99.90;;;;;;5044804;28;20045;-72
2022/07/14 00:28:38;;;;;;;13.93;3.90;;;12.90;99.90;;;;;;5044293;28;20124;-71
2022/07/14 00:31:10;;;;;;;11.43;3.85;;;12.90;99.90;;;;;;5048539;28;20060;-71
2022/07/14 00:33:36;;;;;;;11.45;3.80;;;12.80;99.90;;;;;;5031812;28;20075;-72
2022/07/14 00:36:02;;;;;;;14.02;3.95;;;12.80;99.90;;;;;;5032177;28;20416;-71
2022/07/14 00:38:28;;;;;;;9.48;3.60;;;12.80;99.90;;;;;;5025266;28;20640;-72
2022/07/14 00:40:54;;;;;;;12.82;3.70;;;12.90;99.90;;;;;;5051634;28;20045;-71
2022/07/14 00:43:19;;;;;;;13.00;3.75;;;12.90;99.90;;;;;;5039891;28;20100;-71
2022/07/14 00:45:45;;;;;;;14.30;4.22;;;12.90;99.90;;;;;;5042897;28;20036;-71
2022/07/14 00:48:12;;;;;;;11.10;3.50;;;12.90;99.90;;;;;;5014717;28;20045;-71
2022/07/14 00:50:41;;;;;;;13.77;3.72;;;13.00;99.90;;;;;;5031619;28;20706;-72
2022/07/14 00:53:08;;;;;;;14.23;3.70;;;13.00;99.90;;;;;;5051425;28;20059;-71
2022/07/14 00:55:35;;;;;;;9.85;3.33;;;13.00;99.90;;;;;;5051574;28;20518;-71
2022/07/14 00:58:01;;;;;;;11.73;3.75;;;13.00;99.90;;;;;;5034252;28;20542;-70
2022/07/14 01:00:26;;;;;;;11.23;3.47;;;13.00;99.90;;;;;;5037324;28;20049;-71
2022/07/14 01:02:52;;;;;;;13.88;3.63;;;13.10;99.90;;;;;;5030728;28;20076;-71
2022/07/14 01:05:18;;;;;;;12.18;3.60;;;13.10;99.90;;;;;;5033768;28;20594;-71
2022/07/14 01:07:45;;;;;;;9.82;3.75;;;13.10;99.90;;;;;;5024951;28;20081;-71
2022/07/14 01:10:11;;;;;;;11.13;3.50;;;13.10;99.90;;;;;;5033179;28;20041;-71
2022/07/14 01:12:38;;;;;;;12.43;3.45;;;13.10;99.90;;;;;;5043977;28;20541;-72
2022/07/14 01:15:05;;;;;;;12.52;3.50;;;13.10;99.90;;;;;;5042077;28;20412;-71
2022/07/14 01:17:31;;;;;;;9.02;3.17;;;13.00;99.90;;;;;;5013971;28;20095;-71
2022/07/14 01:19:57;;;;;;;12.77;3.72;;;13.00;99.90;;;;;;5033026;28;20053;-71
2022/07/14 01:22:22;;;;;;;13.05;3.45;;;13.00;99.90;;;;;;5050179;28;20605;-72
2022/07/14 01:24:48;;;;;;;13.32;3.50;;;12.90;99.90;;;;;;5052661;28;20392;-71
2022/07/14 01:27:14;;;;;;;11.00;3.38;;;12.90;99.90;;;;;;5021271;28;20389;-72
2022/07/14 01:29:39;;;;;;;11.95;3.35;;;12.90;99.90;;;;;;5050540;28;20056;-71
2022/07/14 01:32:05;;;;;;;11.18;3.17;;;13.00;99.90;;;;;;5050495;28;20045;-70
2022/07/14 01:34:31;;;;;;;9.45;3.42;;;12.80;99.90;;;;;;5051139;28;20560;-71
2022/07/14 01:36:57;;;;;;;12.95;3.58;;;12.80;99.90;;;;;;5035967;28;20492;-71
2022/07/14 01:39:23;;;;;;;11.38;3.78;;;12.80;99.90;;;;;;5031762;28;20580;-71
2022/07/14 01:41:49;;;;;;;11.77;3.75;;;12.70;99.90;;;;;;5029389;28;20049;-71
2022/07/14 01:44:15;;;;;;;11.40;3.58;;;12.70;99.90;;;;;;5047105;28;20128;-71
2022/07/14 01:46:41;;;;;;;12.40;4.15;;;12.60;99.90;;;;;;5025922;28;20067;-72
2022/07/14 01:49:07;;;;;;;9.88;3.78;;;12.60;99.90;;;;;;5030987;28;20061;-71
2022/07/14 01:51:33;;;;;;;11.32;3.55;;;12.60;99.90;;;;;;5050899;28;20048;-71
2022/07/14 01:53:59;;;;;;;10.60;3.17;;;12.50;99.90;;;;;;5035110;28;20045;-72
2022/07/14 01:56:24;;;;;;;10.00;3.40;;;12.50;99.90;;;;;;5038379;28;20486;-72
2022/07/14 01:58:50;;;;;;;11.57;3.97;;;12.50;99.90;;;;;;5044285;28;20106;-71
2022/07/14 02:04:01;;;;;;;11.90;3.67;;;12.40;99.90;;;;;;5029838;28;20101;-72
2022/07/14 02:06:27;;;;;;;16.10;3.83;;;12.40;99.90;;;;;;5016576;28;20115;-71
2022/07/14 02:08:52;;;;;;;10.82;3.97;;;12.30;99.90;;;;;;5025990;28;20046;-71
2022/07/14 02:14:03;;;;;;;14.52;4.00;;;12.20;99.90;;;;;;5037879;28;20056;-71
2022/07/14 02:16:30;;;;;;;11.38;3.78;;;12.20;99.90;;;;;;5026133;28;20053;-71
2022/07/14 02:18:56;;;;;;;11.80;4.38;;;12.30;99.90;;;;;;5027901;28;20485;-71
2022/07/14 02:21:23;;;;;;;11.95;4.30;;;12.20;99.90;;;;;;5043369;28;20037;-72
2022/07/14 02:23:49;;;;;;;13.50;3.67;;;12.20;99.90;;;;;;5029463;28;20618;-71
2022/07/14 02:26:14;;;;;;;10.90;3.88;;;12.20;99.90;;;;;;5037185;28;20045;-72
2022/07/14 02:28:41;;;;;;;11.88;4.20;;;12.20;99.90;;;;;;5042297;28;20052;-70
2022/07/14 02:31:11;;;;;;;12.80;3.90;;;12.20;99.90;;;;;;5049866;28;20583;-72
2022/07/14 02:33:37;;;;;;;11.65;4.10;;;12.20;99.90;;;;;;5049428;28;20212;-74
2022/07/14 02:36:04;;;;;;;12.13;4.22;;;12.20;99.90;;;;;;5049990;28;20124;-73
2022/07/14 02:38:30;;;;;;;10.73;4.20;;;12.20;99.90;;;;;;5034949;28;20099;-73
2022/07/14 02:40:55;;;;;;;13.07;3.83;;;12.20;99.90;;;;;;5044281;28;20079;-74
2022/07/14 02:43:21;;;;;;;13.75;3.45;;;12.20;99.90;;;;;;5040097;28;20137;-73
2022/07/14 02:45:47;;;;;;;11.90;3.47;;;12.20;99.90;;;;;;5046370;28;20045;-74
2022/07/14 02:48:12;;;;;;;11.45;3.70;;;12.20;99.90;;;;;;5013992;28;20050;-72
2022/07/14 02:50:40;;;;;;;10.95;3.80;;;12.20;99.90;;;;;;5030412;28;20100;-73
2022/07/14 02:53:06;;;;;;;9.95;3.50;;;12.30;99.90;;;;;;5041663;28;20041;-73
2022/07/14 02:55:34;;;;;;;10.68;3.05;;;12.20;99.90;;;;;;5054161;28;20407;-73
2022/07/14 02:58:00;;;;;;;12.13;3.42;;;12.20;99.90;;;;;;5037838;28;20621;-73
2022/07/14 03:00:26;;;;;;;11.32;3.30;;;12.20;99.90;;;;;;5038645;28;20053;-73
2022/07/14 03:02:54;;;;;;;10.50;3.75;;;12.10;99.90;;;;;;5033012;28;20045;-73
2022/07/14 03:05:20;;;;;;;13.20;3.90;;;12.10;99.90;;;;;;5045412;28;20060;-73
2022/07/14 03:07:46;;;;;;;7.60;3.15;;;12.10;99.90;;;;;;5026799;28;20094;-73
2022/07/14 03:10:11;;;;;;;10.52;3.88;;;12.10;99.90;;;;;;5051273;28;20132;-72
2022/07/14 03:12:37;;;;;;;11.35;3.95;;;12.00;99.90;;;;;;5046327;28;20519;-73
2022/07/14 03:15:03;;;;;;;7.03;3.67;;;11.90;99.90;;;;;;5043319;28;20045;-73
2022/07/14 03:17:29;;;;;;;7.65;3.22;;;12.00;99.90;;;;;;5028016;28;20048;-72
2022/07/14 03:19:55;;;;;;;8.75;3.45;;;11.90;99.90;;;;;;5036165;28;20041;-72
2022/07/14 03:22:20;;;;;;;10.60;3.30;;;11.90;99.90;;;;;;5032356;28;20072;-73
2022/07/14 03:24:46;;;;;;;10.25;3.05;;;11.90;99.90;;;;;;5045451;28;20064;-73
2022/07/14 03:27:12;;;;;;;7.88;2.78;;;11.90;99.90;;;;;;5036356;28;20045;-73
2022/07/14 03:29:40;;;;;;;9.10;2.97;;;11.90;99.90;;;;;;5035838;28;20053;-73
2022/07/14 03:32:07;;;;;;;10.80;3.25;;;11.90;99.90;;;;;;5033263;28;20051;-73
2022/07/14 03:34:32;;;;;;;9.35;3.40;;;11.90;99.90;;;;;;5032620;28;20825;-73
2022/07/14 03:36:59;;;;;;;9.95;3.15;;;11.80;99.90;;;;;;5017796;28;20038;-73
2022/07/14 03:39:26;;;;;;;11.30;3.42;;;11.80;99.90;;;;;;5046509;28;20042;-73
2022/07/14 03:41:52;;;;;;;10.75;3.00;;;11.80;99.90;;;;;;5032972;28;20041;-73
2022/07/14 03:44:18;;;;;;;10.98;3.33;;;11.70;99.90;;;;;;5050410;28;20387;-73
2022/07/14 03:46:44;;;;;;;7.32;2.72;;;11.80;99.90;;;;;;5026678;28;20132;-74
2022/07/14 03:49:10;;;;;;;12.80;3.15;;;11.70;99.90;;;;;;5030762;28;20041;-73
2022/07/14 03:51:43;;;;;;;10.98;2.90;;;11.80;99.90;;;;;;5042028;28;20051;-73
2022/07/14 03:54:10;;;;;;;10.52;2.90;;;11.80;99.90;;;;;;5052263;28;20060;-73
2022/07/14 03:56:39;;;;;;;7.43;2.67;;;11.80;99.90;;;;;;5037740;28;20049;-73
2022/07/14 03:59:05;;;;;;;7.85;2.70;;;11.80;99.90;;;;;;5050057;28;20056;-73
2022/07/14 04:01:31;;;;;;;7.80;2.38;;;11.80;99.90;;;;;;5052533;28;20051;-72
2022/07/14 04:03:56;;;;;;;7.20;2.50;;;11.80;99.90;;;;;;5037052;28;20140;-73
2022/07/14 04:06:23;;;;;;;8.23;2.58;;;11.70;99.90;;;;;;5041659;28;20049;-73
2022/07/14 04:08:49;;;;;;;8.48;2.53;;;11.80;99.90;;;;;;5028716;28;20073;-72
2022/07/14 04:11:15;;;;;;;6.82;2.25;;;11.80;99.90;;;;;;5020095;28;20161;-72
2022/07/14 04:13:41;;;;;;;10.90;2.10;;;11.90;99.90;;;;;;5033247;28;20636;-73
2022/07/14 04:16:07;;;;;;;7.70;2.50;;;11.90;99.90;;;;;;5036425;28;20080;-74
2022/07/14 04:18:33;;;;;;;7.75;2.30;;;12.00;99.90;;;;;;5035479;28;20049;-73
2022/07/14 04:20:58;;;;;;;7.85;2.33;;;12.10;99.90;;;;;;5040323;28;20054;-73
2022/07/14 04:23:24;;;;;;;6.30;2.20;;;12.00;99.90;;;;;;5046021;28;20056;-72
2022/07/14 04:25:50;;;;;;;6.07;2.30;;;12.00;99.90;;;;;;5048411;28;20040;-73
2022/07/14 04:28:16;;;;;;;7.60;2.17;;;12.10;99.90;;;;;;5029948;28;20045;-73
2022/07/14 04:30:42;;;;;;;6.28;2.10;;;12.10;99.90;;;;;;5038434;28;20140;-72
2022/07/14 04:33:09;;;;;;;8.23;2.30;;;12.20;99.90;;;;;;5029232;28;20060;-72
2022/07/14 04:35:35;;;;;;;8.43;2.08;;;12.20;99.90;;;;;;5031981;28;20041;-73
2022/07/14 04:38:01;;;;;;;7.40;1.90;;;12.20;99.90;;;;;;5023293;28;20144;-73
2022/07/14 04:40:27;;;;;;;4.63;1.92;;;12.30;99.90;;;;;;5048444;28;20128;-73
2022/07/14 04:42:53;;;;;;;6.80;1.95;;;12.30;99.90;;;;;;5030542;28;20128;-73
2022/07/14 04:45:20;;;;;;;8.40;2.35;;;12.40;99.90;;;;;;5047262;28;20042;-72
2022/07/14 04:47:45;;;;;;;6.72;1.88;;;12.40;99.90;;;;;;5030411;28;20068;-73
2022/07/14 04:52:55;;;;;;;6.00;2.20;;;12.50;99.90;;;;;;5037328;28;20056;-73
2022/07/14 04:55:21;;;;;;;7.82;2.20;;;12.50;99.90;;;;;;5032092;28;20128;-73
2022/07/14 04:57:47;;;;;;;8.52;1.90;;;12.60;99.90;;;;;;5015436;28;20057;-73
2022/07/14 05:00:14;;;;;;;7.63;1.98;;;12.60;99.90;;;;;;5043738;28;20037;-72
2022/07/14 05:02:39;;;;;;;9.95;2.25;;;12.70;99.90;;;;;;5050880;28;20037;-73
2022/07/14 05:05:05;;;;;;;6.22;1.70;;;12.80;99.90;;;;;;5051337;28;20048;-73
2022/07/14 05:07:31;;;;;;;5.60;1.55;;;12.90;99.90;;;;;;5026704;28;20037;-71
2022/07/14 05:09:57;;;;;;;6.68;1.77;;;12.90;99.90;;;;;;5031301;28;20053;-73
2022/07/14 05:12:22;;;;;;;4.93;1.80;;;13.00;99.90;;;;;;5039733;28;20127;-72
2022/07/14 05:14:48;;;;;;;7.18;1.65;;;13.10;99.90;;;;;;5037626;28;20047;-72
2022/07/14 05:17:14;;;;;;;8.07;1.67;;;13.20;99.90;;;;;;5013668;28;20056;-72
2022/07/14 05:19:40;;;;;;;9.48;1.85;;;13.30;99.90;;;;;;5030931;28;20046;-73
2022/07/14 05:22:06;;;;;;;6.22;1.90;;;13.40;99.90;;;;;;5038711;28;20044;-72
2022/07/14 05:24:31;;;;;;;8.70;1.65;;;13.60;99.90;;;;;;5038421;28;20408;-73
2022/07/14 05:26:58;;;;;;;4.55;1.50;;;13.70;99.90;;;;;;5020831;28;20051;-73
2022/07/14 05:29:25;;;;;;;5.22;1.50;;;13.90;99.90;;;;;;5049378;28;20052;-73
2022/07/14 05:31:51;;;;;;;5.28;1.70;;;14.10;99.90;;;;;;5050268;28;20382;-72
2022/07/14 05:34:17;;;;;;;5.97;1.50;;;14.30;99.90;;;;;;5033269;28;20049;-72
2022/07/14 05:36:43;;;;;;;7.55;1.77;;;14.30;99.90;;;;;;5017162;28;20056;-72
2022/07/14 05:39:09;;;;;;;6.70;1.70;;;14.30;99.90;;;;;;5038475;28;20041;-72
2022/07/14 05:41:34;;;;;;;5.38;1.50;;;14.50;99.90;;;;;;5051027;28;20156;-73
2022/07/14 05:44:01;;;;;;;3.30;1.40;;;14.80;99.90;;;;;;5033966;28;20077;-72
2022/07/14 05:46:27;;;;;;;5.72;2.00;;;14.80;99.90;;;;;;5028300;28;20647;-72
2022/07/14 05:48:53;;;;;;;7.20;1.67;;;15.00;99.90;;;;;;5032318;28;20045;-72
2022/07/14 05:51:20;;;;;;;5.28;1.60;;;15.10;99.90;;;;;;5036030;28;20049;-73
2022/07/14 05:53:46;;;;;;;6.28;1.60;;;15.30;99.90;;;;;;5036063;28;20121;-73
2022/07/14 05:56:12;;;;;;;4.78;1.40;;;15.40;99.90;;;;;;5032975;28;20488;-73
2022/07/14 05:58:39;;;;;;;7.65;1.33;;;15.40;99.90;;;;;;5032970;28;20041;-73
2022/07/14 06:01:07;;;;;;;8.05;1.88;;;15.70;99.90;;;;;;5041464;28;20582;-72
2022/07/14 06:03:34;;;;;;;6.07;1.40;;;15.90;99.90;;;;;;5038393;28;20041;-73
2022/07/14 06:06:01;;;;;;;5.43;1.55;;;16.20;99.90;;;;;;5037737;28;20458;-72
2022/07/14 06:08:28;;;;;;;7.25;1.23;;;16.30;99.90;;;;;;5024450;28;20468;-73
2022/07/14 06:10:57;;;;;;;5.63;1.27;;;15.90;99.90;;;;;;5039787;28;20045;-71
2022/07/14 06:13:27;;;;;;;10.18;1.60;;;15.70;99.90;;;;;;5034763;28;20407;-72
2022/07/14 06:15:55;;;;;;;7.50;1.05;;;15.60;99.90;;;;;;5043950;28;20037;-72
2022/07/14 06:18:20;;;;;;;6.13;1.40;;;16.10;99.90;;;;;;5022266;28;20179;-73
2022/07/14 06:20:47;;;;;;;6.15;1.17;;;16.20;99.90;;;;;;5021703;28;20452;-74
2022/07/14 06:23:13;;;;;;;5.40;1.13;;;16.00;99.90;;;;;;5036974;28;20045;-73
2022/07/14 06:25:39;;;;;;;6.85;1.20;;;16.00;99.90;;;;;;5045650;28;20045;-74
2022/07/14 06:28:06;;;;;;;8.00;1.40;;;15.90;99.90;;;;;;5036680;28;20052;-72
2022/07/14 06:30:32;;;;;;;6.68;1.10;;;15.90;99.90;;;;;;5020536;28;20174;-73
2022/07/14 06:32:58;;;;;;;5.03;1.02;;;16.10;99.90;;;;;;5040421;28;20045;-72
2022/07/14 06:35:24;;;;;;;7.28;1.55;;;16.10;99.90;;;;;;5053267;28;20498;-72
2022/07/14 06:37:53;;;;;;;6.07;1.13;;;16.10;99.90;;;;;;5026137;28;20061;-72
2022/07/14 06:40:19;;;;;;;7.03;1.10;;;16.00;99.90;;;;;;5040809;28;20052;-73
2022/07/14 06:42:46;;;;;;;6.57;1.17;;;16.40;99.90;;;;;;5035900;28;20041;-73
2022/07/14 06:45:12;;;;;;;4.35;1.10;;;16.20;99.90;;;;;;5041432;28;20407;-71
2022/07/14 06:47:38;;;;;;;7.03;1.00;;;16.20;99.90;;;;;;5032512;28;20570;-73
2022/07/14 06:50:05;;;;;;;6.65;1.17;;;16.70;99.90;;;;;;5041277;28;20055;-73
2022/07/14 06:52:31;;;;;;;8.77;1.23;;;16.80;99.90;;;;;;5051105;28;20040;-74
2022/07/14 06:55:03;;;;;;;7.63;0.90;;;16.50;99.90;;;;;;5043775;28;20187;-73
2022/07/14 06:57:28;;;;;;;5.68;0.95;;;16.40;99.90;;;;;;5027314;28;20132;-71
2022/07/14 06:59:54;;;;;;;8.38;0.90;;;16.50;99.90;;;;;;5031667;28;20132;-72
2022/07/14 07:02:20;;;;;;;3.83;0.70;;;16.50;99.90;;;;;;5032822;28;20075;-73
2022/07/14 07:06:43;;;;;;;3.70;0.60;;;16.70;99.90;;;;;;5053065;28;20052;-74
2022/07/14 07:07:33;;;;;;;3.88;0.63;;;17.10;99.90;;;;;;5023003;28;20041;-73
2022/07/14 07:09:58;;;;;;;6.20;0.70;;;17.20;99.90;;;;;;5042042;28;20061;-74
2022/07/14 07:12:24;;;;;;;2.13;0.50;;;17.10;99.90;;;;;;5039337;28;20083;-73
2022/07/14 07:14:50;;;;;;;2.55;0.50;;;17.00;99.90;;;;;;5040854;28;20048;-74
2022/07/14 07:17:15;;;;;;;4.65;0.50;;;17.20;99.90;;;;;;5020436;28;20115;-74
2022/07/14 07:19:41;;;;;;;5.03;0.60;;;17.30;99.90;;;;;;5032593;28;20593;-75
2022/07/14 07:22:07;;;;;;;2.15;0.45;;;17.40;99.90;;;;;;5028817;28;20061;-73
2022/07/14 07:24:32;;;;;;;3.63;0.35;;;17.30;99.90;;;;;;5034237;28;20052;-74
2022/07/14 07:26:58;;;;;;;3.47;0.40;;;16.90;99.90;;;;;;5017696;28;20055;-73
2022/07/14 07:29:24;;;;;;;2.83;0.40;;;16.80;99.90;;;;;;5033157;28;20041;-75
2022/07/14 07:31:49;;;;;;;4.13;0.50;;;17.10;99.90;;;;;;5025868;28;20065;-73
2022/07/14 07:34:15;;;;;;;3.08;0.50;;;17.10;99.90;;;;;;5033528;28;20132;-73
2022/07/14 07:36:40;;;;;;;2.58;0.40;;;16.90;99.90;;;;;;5018703;28;20066;-74
2022/07/14 07:39:06;;;;;;;3.97;0.55;;;16.80;99.90;;;;;;5033546;28;20566;-73
2022/07/14 07:41:32;;;;;;;2.03;0.22;;;17.00;99.90;;;;;;5037957;28;20102;-73
2022/07/14 07:43:58;;;;;;;3.53;0.40;;;16.90;99.90;;;;;;5043089;28;20052;-74
2022/07/14 07:46:26;;;;;;;4.38;0.60;;;16.90;99.90;;;;;;5017670;28;20620;-74
2022/07/14 07:48:51;;;;;;;4.45;0.70;;;17.10;99.90;;;;;;5026524;28;21346;-74
2022/07/14 07:51:17;;;;;;;3.08;0.55;;;17.00;99.90;;;;;;5037785;28;20491;-73
2022/07/14 07:53:45;;;;;;;6.80;0.47;;;17.20;99.90;;;;;;5031370;28;20556;-73
2022/07/14 07:56:11;;;;;;;2.53;0.50;;;17.30;99.90;;;;;;5027879;28;20060;-75
2022/07/14 07:58:37;;;;;;;5.28;0.35;;;17.70;99.90;;;;;;5033721;28;20053;-73
2022/07/14 08:01:03;;;;;;;2.20;0.30;;;17.70;99.90;;;;;;5031758;28;20523;-74
2022/07/14 08:03:29;;;;;;;7.20;0.55;;;17.70;99.90;;;;;;5035007;28;20080;-74
2022/07/14 08:05:55;;;;;;;3.63;0.50;;;17.60;99.90;;;;;;5035188;28;20083;-73
2022/07/14 08:08:21;;;;;;;3.00;0.30;;;17.50;99.90;;;;;;5035976;28;21624;-74
2022/07/14 08:10:47;;;;;;;5.32;0.47;;;17.50;99.90;;;;;;5029372;28;20045;-73
2022/07/14 08:13:14;;;;;;;4.88;0.57;;;17.60;99.90;;;;;;5041164;28;20045;-73
2022/07/14 08:15:40;;;;;;;1.73;0.30;;;17.70;99.90;;;;;;5037191;28;20099;-73
2022/07/14 08:18:07;;;;;;;1.92;0.38;;;17.70;99.90;;;;;;5032739;28;20143;-73
2022/07/14 08:20:34;;;;;;;2.50;0.40;;;17.70;99.90;;;;;;5037151;28;20064;-73
2022/07/14 08:23:00;;;;;;;2.72;0.50;;;17.70;99.90;;;;;;5037571;28;20056;-73
2022/07/14 08:25:26;;;;;;;2.35;0.40;;;17.80;99.90;;;;;;5043893;28;20041;-72
2022/07/14 08:27:52;;;;;;;2.10;0.30;;;17.70;99.90;;;;;;5023484;28;20055;-73
2022/07/14 08:30:19;;;;;;;4.25;0.50;;;17.80;99.90;;;;;;5041858;28;20049;-73
2022/07/14 08:32:50;;;;;;;4.57;0.60;;;17.70;99.90;;;;;;5039345;28;20037;-73
2022/07/14 08:35:18;;;;;;;1.70;0.40;;;17.70;99.90;;;;;;5038599;28;20053;-73
2022/07/14 08:37:45;;;;;;;3.45;0.50;;;17.70;99.90;;;;;;5028224;28;20094;-74
2022/07/14 08:40:14;;;;;;;1.73;0.30;;;17.90;99.90;;;;;;5041589;28;20448;-75
2022/07/14 08:42:44;;;;;;;4.57;0.47;;;18.10;99.90;;;;;;5032356;28;20084;-74
2022/07/14 08:45:12;;;;;;;3.22;0.63;;;18.20;99.90;;;;;;5040378;28;20502;-73
2022/07/14 08:47:38;;;;;;;3.97;0.35;;;17.80;99.90;;;;;;5022107;28;20049;-72
2022/07/14 08:50:09;;;;;;;2.42;0.52;;;17.60;99.90;;;;;;5037776;28;20076;-72
2022/07/14 08:52:36;;;;;;;3.72;0.40;;;17.80;99.90;;;;;;5035825;28;20042;-73
2022/07/14 08:55:04;;;;;;;2.90;0.50;;;17.70;99.90;;;;;;5045632;28;20060;-74
2022/07/14 08:57:30;;;;;;;2.65;0.20;;;18.00;99.90;;;;;;5020460;28;20045;-76
2022/07/14 08:59:55;;;;;;;3.38;0.43;;;17.90;99.90;;;;;;5040357;28;20028;-73
2022/07/14 09:02:22;;;;;;;2.08;0.40;;;18.00;99.90;;;;;;5043254;28;20296;-73
2022/07/14 09:04:47;;;;;;;1.40;0.20;;;18.10;99.90;;;;;;5038045;28;20503;-73
2022/07/14 09:07:33;;;;;;;1.75;0.30;;;18.20;99.90;;;;;;5022137;28;20040;-72
2022/07/14 09:10:12;;;;;;;4.40;0.57;;;18.00;99.90;;;;;;5035685;28;20056;-73
2022/07/14 09:12:39;;;;;;;4.03;0.60;;;18.10;99.90;;;;;;5039310;28;20037;-73
2022/07/14 09:17:59;;;;;;;4.95;0.38;;;18.00;99.90;;;;;;5022558;28;20055;-76
2022/07/14 09:20:31;;;;;;;3.67;0.57;;;18.40;99.90;;;;;;5041857;28;20037;-76
2022/07/14 09:23:00;;;;;;;;;;;18.20;99.90;;;;;;5039432;28;20091;-75
2022/07/14 09:25:28;;;;;;;3.15;0.50;;;18.30;99.90;;;;;;5041390;28;19931;-76
2022/07/14 09:27:54;;;;;;;1.60;0.30;;;18.20;99.90;;;;;;5026473;28;20049;-74
2022/07/14 09:30:22;;;;;;;3.70;0.52;;;18.40;99.90;;;;;;5037285;28;20069;-73
2022/07/14 09:32:57;;;;;;;3.75;0.50;;;18.40;99.90;;;;;;5039046;28;20053;-74
2022/07/14 09:35:34;;;;;;;2.03;0.40;;;18.30;99.90;;;;;;5037736;28;20059;-73
2022/07/14 09:38:20;;;;;;;4.50;0.43;;;18.40;99.90;;;;;;5023921;28;20117;-74
2022/07/14 09:40:48;;;;;;;3.78;0.50;;;18.70;99.90;;;;;;5037931;28;20045;-71
2022/07/14 09:43:14;;;;;;;4.38;0.47;;;18.70;99.90;;;;;;5040803;28;20041;-72
2022/07/14 09:45:45;;;;;;;2.00;0.40;;;18.80;99.90;;;;;;5039498;28;20037;-72
2022/07/14 09:48:16;;;;;;;3.30;0.40;;;18.60;99.90;;;;;;5018846;28;20132;-70
2022/07/14 09:50:52;;;;;;;3.42;0.50;;;18.50;99.90;;;;;;5038023;28;20127;-72
2022/07/14 09:53:17;;;;;;;1.98;0.20;;;18.50;99.90;;;;;;5041642;28;20048;-71
2022/07/14 09:56:07;;;;;;;2.85;0.55;;;18.40;99.90;;;;;;5038250;28;20059;-71
2022/07/14 09:58:57;;;;;;;5.47;0.40;;;18.50;99.90;;;;;;5024685;28;20044;-71
2022/07/14 10:01:27;;;;;;;1.95;0.45;;;18.60;99.90;;;;;;5034691;28;20424;-70
2022/07/14 10:03:54;;;;;;;2.92;0.57;;;18.80;99.90;;;;;;5034921;28;20053;-71
2022/07/14 10:06:21;;;;;;;2.70;0.30;;;18.80;99.90;;;;;;5026976;28;20061;-70
2022/07/14 10:08:54;;;;;;;3.05;0.30;;;18.70;99.90;;;;;;5039460;28;20135;-71
2022/07/14 10:11:20;;;;;;;1.30;0.20;;;18.70;99.90;;;;;;5048432;28;20724;-72
2022/07/14 10:13:46;;;;;;;2.17;0.30;;;19.00;99.90;;;;;;5037430;28;20049;-71
2022/07/14 10:16:14;;;;;;;2.03;0.40;;;18.70;99.90;;;;;;5041216;28;20048;-72
2022/07/14 10:18:42;;;;;;;2.30;0.30;;;18.60;99.90;;;;;;5031924;28;20044;-72
2022/07/14 10:21:10;;;;;;;3.60;0.40;;;18.60;99.90;;;;;;5022428;28;20049;-72
2022/07/14 10:23:37;;;;;;;4.53;0.47;;;18.70;99.90;;;;;;5037601;28;20049;-74
2022/07/14 10:26:05;;;;;;;2.88;0.40;;;19.10;99.90;;;;;;5036186;28;20087;-72
2022/07/14 10:28:31;;;;;;;2.85;0.47;;;19.00;99.90;;;;;;5006868;28;20726;-71
2022/07/14 10:31:19;;;;;;;2.63;0.40;;;18.70;99.90;;;;;;5004606;28;20070;-71
2022/07/14 10:34:07;;;;;;;3.35;0.38;;;19.00;99.90;;;;;;5034886;28;20041;-71
2022/07/14 10:36:47;;;;;;;3.00;0.50;;;19.00;99.90;;;;;;5029257;28;20616;-72
2022/07/14 10:39:23;;;;;;;3.17;0.43;;;18.90;99.90;;;;;;5031688;28;20518;-73
2022/07/14 10:42:00;;;;;;;3.92;0.32;;;18.90;99.90;;;;;;5048996;28;20139;-71
2022/07/14 10:44:29;;;;;;;2.33;0.35;;;19.00;99.90;;;;;;5016132;28;20095;-72
2022/07/14 10:47:11;;;;;;;3.85;0.38;;;19.00;99.90;;;;;;5012334;28;20040;-71
2022/07/14 10:50:07;;;;;;;1.60;0.43;;;18.80;99.90;;;;;;5027422;28;20527;-72
2022/07/14 10:52:47;;;;;;;2.45;0.30;;;18.70;99.90;;;;;;5029730;28;20053;-72
2022/07/14 10:55:32;;;;;;;2.83;0.38;;;18.80;99.90;;;;;;5034708;28;20029;-74
2022/07/14 10:58:07;;;;;;;6.75;0.45;;;18.90;99.90;;;;;;5015823;28;20516;-70
2022/07/14 11:00:44;;;;;;;2.05;0.25;;;18.80;99.90;;;;;;5033774;28;20049;-71
2022/07/14 11:03:32;;;;;;;2.40;0.30;;;18.70;99.90;;;;;;5030426;28;20516;-72
2022/07/14 11:06:05;;;;;;;2.10;0.40;;;18.80;99.90;;;;;;5033972;28;20069;-70
2022/07/14 11:08:32;;;;;;;1.65;0.30;;;18.90;99.90;;;;;;5022568;28;20041;-71
2022/07/14 11:10:58;;;;;;;2.78;0.50;;;18.90;99.90;;;;;;5033850;28;20525;-73
2022/07/14 11:13:25;;;;;;;2.92;0.40;;;18.90;99.90;;;;;;5051129;28;20045;-71
2022/07/14 11:16:03;;;;;;;2.38;0.20;;;18.70;99.90;;;;;;5040828;28;20045;-71
2022/07/14 11:18:33;;;;;;;0.80;0.17;;;18.70;99.90;;;;;;5022874;28;20049;-71
2022/07/14 11:21:18;;;;;;;2.60;0.40;;;18.50;99.90;;;;;;5058317;28;20052;-71
2022/07/14 11:23:46;;;;;;;1.95;0.35;;;18.80;99.90;;;;;;5037321;28;20049;-72
2022/07/14 11:26:41;;;;;;;4.53;0.35;;;19.10;99.90;;;;;;5033516;28;20077;-72
2022/07/14 11:29:11;;;;;;;3.00;0.60;;;19.10;99.90;;;;;;5026141;28;20052;-69
2022/07/14 11:31:50;;;;;;;3.33;0.35;;;19.40;99.90;;;;;;5039063;28;20060;-69
2022/07/14 11:37:14;;;;;;;2.85;0.52;;;19.20;99.90;;;;;;5021354;28;20514;-71
2022/07/14 11:39:42;;;;;;;5.97;0.70;;;19.20;99.90;;;;;;5040916;28;20040;-71
2022/07/14 11:42:16;;;;;;;4.53;0.25;;;19.10;99.90;;;;;;5038779;28;20052;-72
2022/07/14 11:44:43;;;;;;;4.50;0.40;;;19.20;99.90;;;;;;5039536;28;20051;-71
2022/07/14 11:47:17;;;;;;;2.60;0.43;;;19.20;99.90;;;;;;5025467;28;20060;-72
2022/07/14 11:49:54;;;;;;;2.75;0.40;;;19.10;99.90;;;;;;5037748;28;20048;-71
2022/07/14 11:52:25;;;;;;;2.35;0.40;;;19.10;99.90;;;;;;5043505;28;20098;-70
2022/07/14 11:54:55;;;;;;;3.72;0.55;;;19.10;99.90;;;;;;5039462;28;20045;-71
2022/07/14 11:57:21;;;;;;;4.20;0.45;;;19.00;99.90;;;;;;5024199;28;20048;-71
2022/07/14 11:59:47;;;;;;;3.38;0.50;;;19.00;99.90;;;;;;5046982;28;20111;-72
2022/07/14 12:02:15;;;;;;;6.18;0.50;;;19.00;99.90;;;;;;5041132;28;20069;-73
2022/07/14 12:04:57;;;;;;;5.30;0.70;;;19.10;99.90;;;;;;5038767;28;20048;-73
2022/07/14 12:07:44;;;;;;;3.20;0.30;;;19.10;99.90;;;;;;5023302;28;20060;-70
2022/07/14 12:10:11;;;;;;;3.58;0.50;;;19.00;99.90;;;;;;5034776;28;20049;-73
2022/07/14 12:12:41;;;;;;;5.28;0.60;;;18.80;99.90;;;;;;5035678;28;20412;-70
2022/07/14 12:15:07;;;;;;;7.00;0.70;;;19.00;99.90;;;;;;5041316;28;20496;-71
2022/07/14 12:17:46;;;;;;;3.08;0.68;;;19.20;99.90;;;;;;5021973;28;20045;-71
2022/07/14 12:20:13;;;;;;;1.73;0.35;;;19.40;99.90;;;;;;5038129;28;20653;-71
2022/07/14 12:22:54;;;;;;;1.88;0.30;;;19.20;99.90;;;;;;5046764;28;20037;-70
2022/07/14 12:25:27;;;;;;;;;;;19.70;99.90;;;;;;5038061;28;20451;-71
2022/07/14 12:27:53;;;;;;;3.45;0.50;;;19.80;99.90;;;;;;5028663;28;20023;-73
2022/07/14 12:30:20;;;;;;;2.30;0.40;;;19.70;99.90;;;;;;5041247;28;20075;-71
2022/07/14 12:32:54;;;;;;;1.98;0.40;;;19.60;99.90;;;;;;5041758;28;20609;-70
2022/07/14 12:35:21;;;;;;;3.83;0.30;;;19.30;99.90;;;;;;5042908;28;20041;-70
2022/07/14 12:37:49;;;;;;;1.77;0.20;;;19.30;99.90;;;;;;5014238;28;20140;-70
2022/07/14 12:40:17;;;;;;;3.25;0.50;;;19.40;99.90;;;;;;5038373;28;20055;-72
2022/07/14 12:42:43;;;;;;;5.07;0.40;;;19.70;99.90;;;;;;5036994;28;20111;-72
2022/07/14 12:45:09;;;;;;;1.95;0.30;;;19.70;99.90;;;;;;5036890;28;20064;-71
2022/07/14 12:47:52;;;;;;;2.92;0.38;;;20.00;99.90;;;;;;5021968;28;20045;-72
2022/07/14 12:50:20;;;;;;;2.00;0.25;;;20.00;99.90;;;;;;5038980;28;20642;-72
2022/07/14 12:52:52;;;;;;;3.55;0.57;;;19.90;99.90;;;;;;5038869;28;20076;-71
2022/07/14 12:55:38;;;;;;;4.53;0.60;;;19.90;99.90;;;;;;5038987;28;20036;-72
2022/07/14 12:58:05;;;;;;;5.78;0.55;;;19.80;99.90;;;;;;5029854;28;20104;-69
2022/07/14 13:00:32;;;;;;;3.92;0.50;;;19.60;99.90;;;;;;5042030;28;20047;-70
2022/07/14 13:03:16;;;;;;;4.03;0.55;;;19.50;99.90;;;;;;5034441;28;20048;-71
2022/07/14 13:05:54;;;;;;;3.45;0.28;;;19.50;99.90;;;;;;5040797;28;20411;-73